Terminal Aerodrome Forecast
Issued by NWS Charleston, WV

Home | Current Version | Previous Version | Text Only | Print | Product List | Glossary On
Versions: 1 2 3 4 5 6 7 8 9 10 11 12 13 14 15 16 17 18 19 20 21 22 23 24 25 26 27 28 29 30 31 32 33 34
000
FTUS41 KRLX 211400 AAA
TAFEKN
TAF AMD
KEKN 211404Z 2114/2212 26004KT P6SM -SHRA OVC015
      TEMPO 2114/2115 4SM -RA BR
     FM211500 26005KT P6SM OVC010
      TEMPO 2115/2117 4SM -RA BR
     FM211700 28006KT P6SM -SHRA OVC015
     FM212200 30007KT 4SM -SHRA BR OVC025
     FM220000 31007KT 4SM -SHRA BR OVC015
     FM220300 31006KT 4SM -SHRA BR OVC025
     FM221000 31005KT 6SM BR OVC015
     FM221100 31005KT P6SM OVC008=

USA.gov is the U.S. government's official web portal to all federal, state and local government web resources and services.